createdAt,value
2017-10-01T00:00:48.748Z,12.28
2017-10-01T00:03:16.260Z,12.21
2017-10-01T00:05:43.786Z,12.13
2017-10-01T00:08:11.295Z,12.18
2017-10-01T00:10:38.833Z,12.13
2017-10-01T00:13:06.462Z,12.37
2017-10-01T00:15:33.979Z,12.30
2017-10-01T00:18:01.504Z,12.38
2017-10-01T00:20:29.004Z,12.17
2017-10-01T00:22:56.532Z,12.06
2017-10-01T00:25:24.045Z,12.06
2017-10-01T00:27:51.555Z,12.23
2017-10-01T00:30:19.072Z,12.20
2017-10-01T00:32:46.585Z,12.13
2017-10-01T00:35:14.084Z,12.15
2017-10-01T00:37:41.588Z,12.30
2017-10-01T00:40:09.089Z,12.18
2017-10-01T00:42:36.618Z,12.39
2017-10-01T00:45:04.159Z,12.27
2017-10-01T00:47:31.663Z,12.28
2017-10-01T00:49:59.175Z,12.19
2017-10-01T00:52:26.694Z,12.24
2017-10-01T00:54:54.206Z,12.06
2017-10-01T00:57:21.735Z,11.97
2017-10-01T00:59:49.240Z,12.20
2017-10-01T01:02:16.752Z,12.10
2017-10-01T01:04:44.432Z,12.06
2017-10-01T01:07:11.962Z,12.10
2017-10-01T01:09:39.474Z,12.14
2017-10-01T01:12:06.983Z,12.07
2017-10-01T01:14:34.502Z,12.19
2017-10-01T01:17:02.070Z,12.17
2017-10-01T01:19:29.580Z,12.09
2017-10-01T01:21:57.095Z,12.09
2017-10-01T01:24:24.607Z,11.99
2017-10-01T01:26:52.145Z,11.99
2017-10-01T01:29:19.651Z,12.00
2017-10-01T01:31:47.185Z,11.96
2017-10-01T01:34:14.683Z,12.00
2017-10-01T01:36:42.184Z,11.88
2017-10-01T01:39:09.716Z,11.78
2017-10-01T01:41:37.246Z,11.67
2017-10-01T01:44:04.757Z,11.62
2017-10-01T01:46:32.268Z,11.58
2017-10-01T01:48:59.814Z,11.57
2017-10-01T01:51:27.329Z,11.67
2017-10-01T01:53:54.832Z,11.63
2017-10-01T01:56:22.356Z,11.64
2017-10-01T01:58:49.901Z,11.49
2017-10-01T02:01:17.512Z,11.53
2017-10-01T02:03:45.114Z,11.46
2017-10-01T02:06:12.624Z,11.47
2017-10-01T02:08:40.123Z,11.41
2017-10-01T02:11:07.635Z,11.69
2017-10-01T02:13:35.162Z,11.86
2017-10-01T02:16:02.668Z,11.64
2017-10-01T02:18:30.170Z,11.67
2017-10-01T02:20:57.685Z,11.58
2017-10-01T02:23:25.214Z,11.55
2017-10-01T02:25:52.724Z,11.30
2017-10-01T02:28:20.303Z,11.37
2017-10-01T02:30:47.810Z,11.45
2017-10-01T02:33:15.331Z,11.38
2017-10-01T02:35:42.841Z,11.32
2017-10-01T02:38:10.367Z,11.24
2017-10-01T02:40:37.875Z,11.30
2017-10-01T02:43:05.400Z,11.36
2017-10-01T02:45:32.959Z,11.34
2017-10-01T02:48:00.544Z,11.37
2017-10-01T02:50:28.049Z,11.41
2017-10-01T02:52:55.558Z,11.58
2017-10-01T02:55:23.061Z,11.71
2017-10-01T02:57:50.579Z,12.05
2017-10-01T03:00:18.114Z,11.74
2017-10-01T03:02:45.648Z,11.99
2017-10-01T03:05:13.195Z,12.03
2017-10-01T03:07:40.714Z,11.95
2017-10-01T03:10:08.238Z,12.06
2017-10-01T03:12:35.760Z,11.77
2017-10-01T03:15:03.270Z,11.87
2017-10-01T03:17:30.764Z,12.08
2017-10-01T03:19:58.282Z,12.12
2017-10-01T03:22:25.778Z,11.83
2017-10-01T03:24:53.311Z,12.01
2017-10-01T03:27:20.818Z,12.06
2017-10-01T03:29:48.321Z,12.10
2017-10-01T03:32:15.846Z,11.67
2017-10-01T03:34:43.351Z,11.68
2017-10-01T03:37:10.973Z,11.63
2017-10-01T03:39:38.497Z,11.48
2017-10-01T03:42:06.028Z,11.36
2017-10-01T03:44:33.541Z,11.42
2017-10-01T03:47:01.288Z,11.37
2017-10-01T03:49:28.800Z,11.41
2017-10-01T03:51:56.342Z,11.36
2017-10-01T03:54:23.855Z,11.35
2017-10-01T03:56:51.362Z,11.51
2017-10-01T03:59:18.869Z,11.57
2017-10-01T04:01:46.391Z,11.64
2017-10-01T04:04:14.845Z,11.39
2017-10-01T04:06:42.371Z,11.22
2017-10-01T04:09:09.892Z,11.08
2017-10-01T04:11:37.390Z,11.05
2017-10-01T04:14:04.912Z,11.31
2017-10-01T04:16:32.436Z,11.05
2017-10-01T04:18:59.951Z,10.92
2017-10-01T04:21:27.462Z,10.77
2017-10-01T04:23:54.966Z,10.76
2017-10-01T04:26:22.460Z,10.83
2017-10-01T04:28:49.970Z,10.91
2017-10-01T04:31:17.475Z,10.84
2017-10-01T04:33:44.991Z,10.85
2017-10-01T04:36:12.502Z,10.66
2017-10-01T04:38:40.044Z,10.84
2017-10-01T04:41:07.564Z,10.70
2017-10-01T04:43:35.096Z,10.55
2017-10-01T04:46:02.619Z,10.52
2017-10-01T04:48:30.172Z,10.31
2017-10-01T04:50:57.678Z,10.14
2017-10-01T04:53:25.206Z,10.19
2017-10-01T04:55:52.747Z,10.16
2017-10-01T04:58:20.267Z,10.23
2017-10-01T05:00:47.796Z,10.26
2017-10-01T05:03:15.303Z,10.51
2017-10-01T05:05:42.804Z,10.65
2017-10-01T05:08:10.329Z,10.88
2017-10-01T05:10:37.851Z,10.97
2017-10-01T05:13:05.369Z,10.73
2017-10-01T05:15:33.918Z,10.59
2017-10-01T05:18:01.570Z,10.71
2017-10-01T05:20:29.310Z,10.72
2017-10-01T05:22:56.863Z,11.01
2017-10-01T05:25:24.389Z,10.67
2017-10-01T05:27:51.892Z,10.65
2017-10-01T05:30:19.400Z,10.60
2017-10-01T05:32:46.911Z,10.58
2017-10-01T05:35:14.412Z,10.65
2017-10-01T05:37:41.932Z,10.94
2017-10-01T05:40:09.440Z,10.98
2017-10-01T05:42:36.966Z,11.20
2017-10-01T05:45:04.484Z,11.27
2017-10-01T05:47:32.024Z,11.35
2017-10-01T05:49:59.548Z,11.16
2017-10-01T05:52:27.055Z,11.07
2017-10-01T05:54:54.563Z,10.99
2017-10-01T05:57:22.149Z,11.06
2017-10-01T05:59:49.660Z,11.15
2017-10-01T06:02:17.167Z,11.06
2017-10-01T06:04:44.688Z,11.30
2017-10-01T06:07:12.210Z,11.18
2017-10-01T06:09:39.724Z,11.31
2017-10-01T06:12:07.236Z,11.19
2017-10-01T06:14:34.739Z,11.34
2017-10-01T06:17:02.240Z,11.36
2017-10-01T06:19:29.759Z,11.55
2017-10-01T06:21:57.282Z,11.73
2017-10-01T06:24:24.779Z,11.69
2017-10-01T06:26:52.292Z,11.68
2017-10-01T06:29:19.803Z,11.42
2017-10-01T06:31:47.310Z,11.70
2017-10-01T06:34:14.810Z,11.58
2017-10-01T06:36:42.312Z,11.22
2017-10-01T06:39:09.841Z,11.08
2017-10-01T06:41:37.347Z,11.21
2017-10-01T06:44:04.932Z,11.35
2017-10-01T06:46:32.455Z,11.70
2017-10-01T06:48:59.963Z,11.77
2017-10-01T06:51:27.473Z,12.25
2017-10-01T06:53:54.979Z,11.93
2017-10-01T06:56:22.491Z,11.64
2017-10-01T06:58:50.012Z,11.66
2017-10-01T07:01:17.517Z,12.06
2017-10-01T07:03:45.052Z,12.08
2017-10-01T07:06:12.598Z,12.42
2017-10-01T07:08:40.111Z,11.99
2017-10-01T07:11:07.633Z,12.13
2017-10-01T07:13:35.176Z,11.98
2017-10-01T07:16:02.709Z,11.50
2017-10-01T07:18:30.236Z,11.92
2017-10-01T07:20:57.751Z,11.72
2017-10-01T07:23:25.266Z,11.89
2017-10-01T07:25:52.758Z,12.20
2017-10-01T07:28:20.269Z,12.62
2017-10-01T07:30:47.774Z,12.46
2017-10-01T07:33:15.284Z,12.34
2017-10-01T07:35:42.795Z,12.40
2017-10-01T07:38:10.298Z,12.65
2017-10-01T07:40:37.812Z,12.49
2017-10-01T07:43:05.326Z,12.75
2017-10-01T07:45:32.845Z,12.92
2017-10-01T07:48:00.371Z,12.42
2017-10-01T07:50:27.901Z,12.41
2017-10-01T07:52:55.402Z,12.52
2017-10-01T07:55:22.937Z,13.04
2017-10-01T07:57:50.448Z,14.78
2017-10-01T08:00:17.959Z,15.47
2017-10-01T08:02:45.499Z,16.02
2017-10-01T08:05:13.003Z,15.92
2017-10-01T08:07:40.536Z,14.36
2017-10-01T08:10:08.045Z,14.66
2017-10-01T08:12:35.559Z,14.77
2017-10-01T08:15:03.085Z,14.86
2017-10-01T08:17:30.585Z,15.15
2017-10-01T08:19:58.095Z,16.20
2017-10-01T08:22:25.594Z,16.15
2017-10-01T08:24:53.109Z,16.27
2017-10-01T08:27:20.633Z,15.25
2017-10-01T08:29:48.135Z,15.20
2017-10-01T08:32:15.654Z,14.56
2017-10-01T08:34:43.181Z,12.72
2017-10-01T08:37:10.702Z,12.60
2017-10-01T08:39:38.225Z,12.54
2017-10-01T08:42:05.743Z,12.39
2017-10-01T08:44:33.270Z,12.42
2017-10-01T08:47:00.791Z,12.38
2017-10-01T08:49:28.305Z,12.41
2017-10-01T08:51:55.836Z,12.49
2017-10-01T08:54:23.365Z,14.40
2017-10-01T08:56:50.883Z,19.18
2017-10-01T08:59:18.401Z,21.50
2017-10-01T09:01:45.907Z,24.13
2017-10-01T09:04:13.442Z,25.12
2017-10-01T09:06:40.958Z,27.41
2017-10-01T09:09:08.462Z,28.69
2017-10-01T09:11:35.999Z,28.00
2017-10-01T09:14:03.767Z,23.43
2017-10-01T09:16:31.307Z,22.90
2017-10-01T09:18:58.830Z,21.20
2017-10-01T09:21:26.335Z,16.99
2017-10-01T09:23:53.848Z,18.33
2017-10-01T09:26:21.461Z,17.27
2017-10-01T09:28:49.018Z,18.58
2017-10-01T09:31:16.543Z,20.88
2017-10-01T09:33:44.059Z,20.58
2017-10-01T09:36:11.580Z,25.35
2017-10-01T09:38:39.100Z,25.09
2017-10-01T09:41:06.636Z,29.32
2017-10-01T09:43:34.203Z,27.99
2017-10-01T09:46:01.733Z,27.37
2017-10-01T09:48:29.240Z,27.09
2017-10-01T09:50:56.752Z,24.73
2017-10-01T09:53:24.257Z,20.83
2017-10-01T09:55:51.772Z,20.88
2017-10-01T09:58:19.277Z,19.65
2017-10-01T10:00:46.812Z,19.89
2017-10-01T10:03:14.330Z,18.65
2017-10-01T10:05:41.859Z,17.06
2017-10-01T10:08:09.364Z,18.31
2017-10-01T10:10:36.908Z,18.04
2017-10-01T10:13:04.434Z,20.44
2017-10-01T10:15:31.952Z,17.50
2017-10-01T10:17:59.459Z,20.21
2017-10-01T10:20:26.968Z,20.93
2017-10-01T10:22:54.504Z,19.82
2017-10-01T10:25:22.030Z,18.89
2017-10-01T10:27:49.540Z,18.79
2017-10-01T10:30:17.069Z,18.38
2017-10-01T10:32:44.584Z,17.76
2017-10-01T10:35:12.091Z,17.85
2017-10-01T10:37:39.625Z,17.97
2017-10-01T10:40:07.127Z,17.71
2017-10-01T10:42:34.644Z,17.61
2017-10-01T10:45:02.171Z,17.81
2017-10-01T10:47:29.703Z,17.40
2017-10-01T10:49:57.211Z,17.48
2017-10-01T10:52:24.735Z,19.37
2017-10-01T10:54:52.293Z,19.78
2017-10-01T10:57:19.807Z,21.35
2017-10-01T10:59:47.326Z,24.55
2017-10-01T11:02:14.839Z,23.73
2017-10-01T11:04:42.348Z,21.84
2017-10-01T11:07:09.857Z,20.30
2017-10-01T11:09:37.384Z,19.56
2017-10-01T11:12:04.935Z,18.95
2017-10-01T11:14:32.489Z,17.53
2017-10-01T11:17:00.005Z,17.77
2017-10-01T11:19:27.539Z,19.02
2017-10-01T11:21:55.040Z,19.02
2017-10-01T11:24:22.557Z,22.61
2017-10-01T11:26:50.071Z,23.39
2017-10-01T11:29:17.659Z,25.40
2017-10-01T11:31:45.174Z,26.80
2017-10-01T11:34:12.690Z,28.65
2017-10-01T11:36:40.210Z,29.76
2017-10-01T11:39:07.736Z,28.85
2017-10-01T11:41:35.359Z,28.05
2017-10-01T11:44:02.875Z,25.82
2017-10-01T11:46:30.391Z,24.59
2017-10-01T11:48:57.910Z,22.69
2017-10-01T11:51:25.414Z,25.31
2017-10-01T11:53:52.932Z,25.64
2017-10-01T11:56:20.445Z,24.72
2017-10-01T11:58:47.982Z,28.24
2017-10-01T12:01:15.492Z,30.53
2017-10-01T12:03:43.018Z,31.37
2017-10-01T12:06:10.523Z,25.90
2017-10-01T12:08:38.044Z,25.54
2017-10-01T12:11:05.574Z,23.18
2017-10-01T12:13:33.079Z,21.97
2017-10-01T12:16:00.602Z,21.60
2017-10-01T12:18:28.111Z,21.66
2017-10-01T12:20:55.635Z,25.10
2017-10-01T12:23:23.136Z,24.17
2017-10-01T12:25:50.653Z,23.62
2017-10-01T12:28:18.184Z,24.83
2017-10-01T12:30:45.691Z,23.56
2017-10-01T12:33:13.196Z,23.05
2017-10-01T12:35:40.724Z,23.52
2017-10-01T12:38:08.235Z,26.88
2017-10-01T12:40:35.794Z,27.62
2017-10-01T12:43:04.295Z,28.02
2017-10-01T12:45:31.799Z,29.31
2017-10-01T12:47:59.319Z,27.59
2017-10-01T12:50:26.940Z,28.21
2017-10-01T12:52:54.439Z,29.38
2017-10-01T12:55:21.992Z,25.25
2017-10-01T12:57:49.623Z,27.76
2017-10-01T13:00:22.855Z,27.75
2017-10-01T13:02:50.365Z,26.67
2017-10-01T13:05:17.907Z,28.79
2017-10-01T13:07:45.436Z,27.31
2017-10-01T13:10:12.950Z,25.73
2017-10-01T13:12:40.480Z,28.78
2017-10-01T13:15:08.002Z,29.49
2017-10-01T13:17:35.528Z,30.29
2017-10-01T13:20:03.035Z,29.24
2017-10-01T13:22:30.554Z,30.73
2017-10-01T13:24:58.073Z,29.63
2017-10-01T13:27:25.640Z,28.24
2017-10-01T13:29:53.150Z,28.16
2017-10-01T13:32:20.660Z,28.06
2017-10-01T13:34:48.165Z,28.29
2017-10-01T13:37:15.682Z,29.30
2017-10-01T13:39:43.255Z,28.12
2017-10-01T13:42:10.772Z,27.74
2017-10-01T13:44:38.294Z,28.56
2017-10-01T13:47:05.825Z,27.44
2017-10-01T13:49:33.427Z,26.91
2017-10-01T13:52:00.930Z,28.05
2017-10-01T13:54:28.462Z,27.18
2017-10-01T13:56:55.971Z,27.50
2017-10-01T13:59:23.488Z,27.26
2017-10-01T14:01:51.034Z,27.62
2017-10-01T14:04:18.563Z,26.98
2017-10-01T14:06:46.086Z,25.39
2017-10-01T14:09:13.618Z,26.73
2017-10-01T14:11:41.136Z,26.86
2017-10-01T14:14:08.668Z,25.26
2017-10-01T14:16:36.209Z,24.21
2017-10-01T14:19:03.711Z,23.32
2017-10-01T14:21:31.222Z,22.79
2017-10-01T14:23:58.723Z,21.75
2017-10-01T14:26:26.251Z,21.38
2017-10-01T14:28:53.767Z,21.22
2017-10-01T14:31:24.265Z,20.45
2017-10-01T14:33:51.781Z,19.45
2017-10-01T14:36:19.312Z,19.10
2017-10-01T14:38:46.814Z,19.54
2017-10-01T14:41:14.318Z,18.75
2017-10-01T14:43:41.845Z,18.70
2017-10-01T14:46:09.431Z,18.70
2017-10-01T14:48:36.989Z,18.67
2017-10-01T14:51:04.530Z,18.60
2017-10-01T14:53:32.073Z,18.11
2017-10-01T14:55:59.583Z,17.88
2017-10-01T14:58:27.104Z,17.83
2017-10-01T15:00:54.602Z,18.00
2017-10-01T15:03:22.118Z,17.62
2017-10-01T15:05:49.622Z,17.44
2017-10-01T15:08:17.162Z,17.84
2017-10-01T15:10:44.688Z,18.13
2017-10-01T15:13:12.269Z,18.08
2017-10-01T15:15:39.770Z,17.83
2017-10-01T15:18:07.294Z,17.86
2017-10-01T15:20:34.858Z,17.93
2017-10-01T15:23:02.375Z,17.83
2017-10-01T15:25:29.889Z,17.45
2017-10-01T15:27:57.425Z,16.38
2017-10-01T15:30:24.965Z,16.60
2017-10-01T15:32:52.502Z,17.16
2017-10-01T15:35:20.047Z,17.06
2017-10-01T15:37:47.560Z,16.97
2017-10-01T15:40:15.076Z,17.22
2017-10-01T15:42:42.594Z,17.02
2017-10-01T15:45:10.094Z,16.05
2017-10-01T15:47:37.697Z,15.92
2017-10-01T15:50:05.249Z,15.90
2017-10-01T15:52:32.787Z,15.09
2017-10-01T15:55:00.319Z,14.83
2017-10-01T15:57:27.838Z,14.55
2017-10-01T15:59:55.351Z,14.66
2017-10-01T16:02:22.875Z,14.63
2017-10-01T16:04:50.391Z,14.52
2017-10-01T16:07:17.927Z,14.32
2017-10-01T16:09:45.426Z,14.15
2017-10-01T16:12:12.962Z,13.95
2017-10-01T16:14:40.476Z,13.88
2017-10-01T16:17:08.003Z,13.75
2017-10-01T16:19:35.506Z,13.78
2017-10-01T16:22:03.020Z,13.65
2017-10-01T16:24:30.543Z,13.53
2017-10-01T16:26:58.064Z,13.48
2017-10-01T16:29:25.578Z,13.66
2017-10-01T16:31:53.096Z,13.76
2017-10-01T16:34:20.653Z,13.53
2017-10-01T16:36:48.166Z,13.26
2017-10-01T16:39:15.712Z,13.15
2017-10-01T16:41:43.244Z,12.93
2017-10-01T16:44:10.763Z,12.78
2017-10-01T16:46:38.273Z,12.56
2017-10-01T16:49:05.796Z,12.32
2017-10-01T16:51:33.398Z,12.45
2017-10-01T16:54:00.926Z,12.46
2017-10-01T16:56:28.454Z,12.31
2017-10-01T16:58:55.995Z,12.22
2017-10-01T17:01:23.579Z,12.61
2017-10-01T17:03:51.116Z,12.60
2017-10-01T17:06:18.750Z,11.99
2017-10-01T17:08:46.263Z,11.78
2017-10-01T17:11:13.805Z,11.64
2017-10-01T17:13:41.323Z,11.47
2017-10-01T17:16:08.831Z,11.29
2017-10-01T17:18:36.340Z,11.23
2017-10-01T17:21:03.850Z,11.10
2017-10-01T17:23:31.379Z,11.75
2017-10-01T17:25:58.967Z,11.47
2017-10-01T17:28:26.480Z,11.02
2017-10-01T17:30:54.003Z,10.65
2017-10-01T17:33:21.532Z,10.62
2017-10-01T17:35:49.056Z,10.73
2017-10-01T17:38:16.582Z,11.13
2017-10-01T17:40:44.108Z,11.29
2017-10-01T17:43:11.650Z,11.11
2017-10-01T17:45:39.187Z,11.13
2017-10-01T17:48:06.729Z,10.72
2017-10-01T17:50:34.265Z,10.57
2017-10-01T17:53:01.791Z,10.54
2017-10-01T17:55:29.295Z,10.49
2017-10-01T17:57:56.831Z,10.61
2017-10-01T18:00:24.351Z,10.48
2017-10-01T18:02:51.862Z,10.34
2017-10-01T18:05:19.388Z,10.13
2017-10-01T18:07:46.886Z,10.08
2017-10-01T18:10:14.531Z,10.02
2017-10-01T18:12:42.056Z,10.23
2017-10-01T18:15:09.594Z,10.64
2017-10-01T18:17:37.110Z,10.00
2017-10-01T18:20:04.630Z,9.84
2017-10-01T18:22:32.147Z,9.83
2017-10-01T18:24:59.647Z,9.83
2017-10-01T18:27:28.041Z,9.72
2017-10-01T18:29:55.552Z,9.55
2017-10-01T18:32:23.068Z,9.66
2017-10-01T18:34:50.599Z,9.78
2017-10-01T18:37:18.120Z,9.50
2017-10-01T18:39:45.662Z,9.26
2017-10-01T18:42:13.180Z,9.30
2017-10-01T18:44:40.682Z,9.24
2017-10-01T18:47:08.195Z,9.70
2017-10-01T18:49:35.760Z,9.63
2017-10-01T18:52:03.306Z,9.34
2017-10-01T18:54:30.832Z,9.62
2017-10-01T18:56:58.365Z,9.54
2017-10-01T18:59:25.909Z,9.53
2017-10-01T19:01:53.557Z,9.59
2017-10-01T19:04:21.159Z,9.56
2017-10-01T19:06:48.657Z,9.12
2017-10-01T19:09:16.187Z,8.80
2017-10-01T19:11:43.731Z,8.85
2017-10-01T19:14:11.342Z,8.92
2017-10-01T19:16:38.854Z,9.08
2017-10-01T19:19:06.353Z,8.80
2017-10-01T19:21:33.868Z,8.78
2017-10-01T19:24:01.720Z,8.79
2017-10-01T19:26:29.259Z,8.62
2017-10-01T19:28:56.783Z,8.57
2017-10-01T19:31:24.318Z,8.35
2017-10-01T19:33:51.835Z,8.31
2017-10-01T19:36:19.355Z,8.48
2017-10-01T19:38:46.897Z,8.70
2017-10-01T19:41:14.441Z,8.69
2017-10-01T19:43:41.951Z,8.64
2017-10-01T19:46:09.487Z,8.52
2017-10-01T19:48:37.095Z,8.31
2017-10-01T19:51:04.675Z,8.46
2017-10-01T19:53:32.185Z,8.49
2017-10-01T19:55:59.710Z,8.53
2017-10-01T19:58:27.269Z,8.23
2017-10-01T20:00:54.779Z,8.28
2017-10-01T20:03:22.307Z,8.04
2017-10-01T20:05:49.822Z,7.96
2017-10-01T20:08:17.363Z,7.97
2017-10-01T20:10:44.942Z,8.06
2017-10-01T20:13:12.464Z,8.02
2017-10-01T20:15:39.957Z,8.17
2017-10-01T20:18:07.478Z,8.11
2017-10-01T20:20:34.996Z,8.20
2017-10-01T20:23:02.493Z,8.24
2017-10-01T20:25:30.022Z,8.05
2017-10-01T20:27:57.535Z,7.88
2017-10-01T20:30:25.076Z,8.21
2017-10-01T20:32:52.596Z,8.06
2017-10-01T20:35:20.123Z,7.87
2017-10-01T20:37:47.664Z,7.71
2017-10-01T20:40:15.177Z,8.20
2017-10-01T20:42:42.689Z,8.45
2017-10-01T20:45:10.211Z,7.73
2017-10-01T20:47:37.718Z,7.74
2017-10-01T20:50:05.230Z,7.60
2017-10-01T20:52:32.739Z,7.54
2017-10-01T20:55:00.256Z,7.54
2017-10-01T20:57:27.781Z,7.43
2017-10-01T20:59:55.300Z,7.44
2017-10-01T21:02:22.805Z,7.82
2017-10-01T21:04:50.384Z,7.67
2017-10-01T21:07:17.897Z,7.55
2017-10-01T21:09:45.433Z,7.38
2017-10-01T21:12:12.981Z,7.60
2017-10-01T21:14:40.485Z,7.59
2017-10-01T21:17:08.011Z,7.72
2017-10-01T21:19:35.540Z,7.54
2017-10-01T21:22:03.067Z,7.65
2017-10-01T21:24:30.576Z,7.41
2017-10-01T21:26:58.083Z,7.32
2017-10-01T21:29:25.611Z,7.30
2017-10-01T21:31:53.137Z,7.37
2017-10-01T21:34:20.660Z,7.33
2017-10-01T21:36:48.172Z,7.34
2017-10-01T21:39:15.691Z,7.26
2017-10-01T21:41:43.212Z,7.18
2017-10-01T21:44:10.746Z,7.42
2017-10-01T21:46:38.255Z,7.85
2017-10-01T21:49:05.757Z,7.86
2017-10-01T21:51:33.318Z,7.66
2017-10-01T21:54:00.827Z,7.48
2017-10-01T21:56:28.331Z,7.51
2017-10-01T21:58:55.855Z,7.49
2017-10-01T22:01:23.373Z,7.47
2017-10-01T22:03:50.878Z,7.64
2017-10-01T22:06:18.382Z,7.57
2017-10-01T22:08:45.904Z,7.68
2017-10-01T22:11:13.418Z,7.63
2017-10-01T22:13:40.945Z,7.57
2017-10-01T22:16:08.453Z,7.55
2017-10-01T22:18:35.972Z,7.58
2017-10-01T22:21:03.473Z,7.66
2017-10-01T22:23:30.994Z,7.61
2017-10-01T22:25:58.503Z,7.66
2017-10-01T22:28:26.035Z,7.64
2017-10-01T22:30:53.643Z,7.58
2017-10-01T22:33:21.155Z,7.67
2017-10-01T22:35:48.654Z,7.72
2017-10-01T22:38:16.159Z,7.99
2017-10-01T22:40:43.696Z,7.92
2017-10-01T22:43:11.211Z,7.90
2017-10-01T22:45:38.716Z,7.86
2017-10-01T22:48:06.215Z,8.25
2017-10-01T22:50:33.724Z,8.31
2017-10-01T22:53:01.235Z,8.47
2017-10-01T22:55:28.750Z,8.27
2017-10-01T22:57:56.273Z,8.14
2017-10-01T23:00:23.777Z,8.22
2017-10-01T23:02:51.302Z,8.36
2017-10-01T23:05:18.820Z,8.47
2017-10-01T23:07:46.354Z,8.56
2017-10-01T23:10:18.071Z,8.06
2017-10-01T23:12:45.598Z,7.95
2017-10-01T23:15:13.099Z,8.22
2017-10-01T23:17:40.623Z,8.02
2017-10-01T23:20:08.131Z,8.01
2017-10-01T23:22:35.627Z,8.10
2017-10-01T23:25:03.143Z,8.25
2017-10-01T23:27:30.650Z,8.47
2017-10-01T23:29:58.166Z,8.12
2017-10-01T23:32:25.686Z,8.17
2017-10-01T23:34:53.203Z,8.36
2017-10-01T23:37:20.706Z,8.28
2017-10-01T23:39:48.361Z,8.10
2017-10-01T23:42:15.876Z,8.06
2017-10-01T23:44:43.403Z,8.24
2017-10-01T23:47:10.898Z,8.02
2017-10-01T23:49:38.423Z,8.10
2017-10-01T23:52:05.962Z,8.50
2017-10-01T23:54:33.492Z,8.57
2017-10-01T23:57:00.993Z,8.53
2017-10-01T23:59:28.503Z,8.33
